createdAt,value
2023-03-12T00:00:38.377Z,99.99
2023-03-12T00:01:38.730Z,99.99
2023-03-12T00:02:39.151Z,99.99
2023-03-12T00:03:39.508Z,99.99
2023-03-12T00:04:39.777Z,99.99
2023-03-12T00:05:40.169Z,99.99
2023-03-12T00:06:40.482Z,99.99
2023-03-12T00:07:40.874Z,99.99
2023-03-12T00:08:41.203Z,99.99
2023-03-12T00:09:41.560Z,99.99
2023-03-12T00:10:41.938Z,99.99
2023-03-12T00:11:42.284Z,99.99
2023-03-12T00:12:42.664Z,99.99
2023-03-12T00:13:43.006Z,99.99
2023-03-12T00:14:43.368Z,99.99
2023-03-12T00:15:43.788Z,99.99
2023-03-12T00:16:44.087Z,99.99
2023-03-12T00:17:44.461Z,99.99
2023-03-12T00:18:44.790Z,99.99
2023-03-12T00:19:45.152Z,99.99
2023-03-12T00:20:45.511Z,99.99
2023-03-12T00:21:45.841Z,99.99
2023-03-12T00:22:46.209Z,99.99
2023-03-12T00:23:46.566Z,99.99
2023-03-12T00:24:46.927Z,99.99
2023-03-12T00:25:47.302Z,99.99
2023-03-12T00:26:47.711Z,99.99
2023-03-12T00:27:47.992Z,99.99
2023-03-12T00:28:48.350Z,99.99
2023-03-12T00:29:48.709Z,99.99
2023-03-12T00:30:49.102Z,99.99
2023-03-12T00:31:49.489Z,99.99
2023-03-12T00:32:49.836Z,99.99
2023-03-12T00:33:50.116Z,99.99
2023-03-12T00:34:50.487Z,99.99
2023-03-12T00:35:50.871Z,99.99
2023-03-12T00:36:51.230Z,99.99
2023-03-12T00:37:51.557Z,99.99
2023-03-12T00:38:51.922Z,99.99
2023-03-12T00:39:52.335Z,99.99
2023-03-12T00:40:52.647Z,99.99
2023-03-12T00:41:52.990Z,99.99
2023-03-12T00:42:53.344Z,99.99
2023-03-12T00:43:53.706Z,99.99
2023-03-12T00:44:54.063Z,99.99
2023-03-12T00:45:54.458Z,99.99
2023-03-12T00:46:54.849Z,99.99
2023-03-12T00:47:55.145Z,99.99
2023-03-12T00:48:55.511Z,99.99
2023-03-12T00:49:56.808Z,99.99
2023-03-12T00:50:56.263Z,99.99
2023-03-12T00:51:56.556Z,99.99
2023-03-12T00:52:56.926Z,99.99
2023-03-12T00:53:57.290Z,99.99
2023-03-12T00:54:57.613Z,99.99
2023-03-12T00:55:57.988Z,99.99
2023-03-12T00:56:58.300Z,99.99
2023-03-12T00:57:58.658Z,99.99
2023-03-12T00:58:59.034Z,99.99
2023-03-12T00:59:59.392Z,99.99
2023-03-12T01:00:59.830Z,99.99
2023-03-12T01:02:00.125Z,99.99
2023-03-12T01:03:00.459Z,99.99
2023-03-12T01:04:00.857Z,99.99
2023-03-12T01:05:01.187Z,99.99
2023-03-12T01:06:01.577Z,99.99
2023-03-12T01:07:01.874Z,99.99
2023-03-12T01:08:02.225Z,99.99
2023-03-12T01:09:02.694Z,99.99
2023-03-12T01:10:02.919Z,99.99
2023-03-12T01:11:03.294Z,99.99
2023-03-12T01:12:03.642Z,99.99
2023-03-12T01:13:04.007Z,99.99
2023-03-12T01:14:04.358Z,99.99
2023-03-12T01:15:04.718Z,99.99
2023-03-12T01:16:05.104Z,99.99
2023-03-12T01:17:05.429Z,99.99
2023-03-12T01:18:05.812Z,99.99
2023-03-12T01:19:06.149Z,99.99
2023-03-12T01:20:06.507Z,99.99
2023-03-12T01:21:06.906Z,99.99
2023-03-12T01:22:07.203Z,99.99
2023-03-12T01:23:07.587Z,99.99
2023-03-12T01:24:07.933Z,99.99
2023-03-12T01:25:08.289Z,99.99
2023-03-12T01:26:08.665Z,99.99
2023-03-12T01:27:08.973Z,99.99
2023-03-12T01:28:09.373Z,99.99
2023-03-12T01:29:09.710Z,99.99
2023-03-12T01:30:10.076Z,99.99
2023-03-12T01:31:10.509Z,99.99
2023-03-12T01:32:10.781Z,99.99
2023-03-12T01:33:11.148Z,99.99
2023-03-12T01:34:11.505Z,99.99
2023-03-12T01:35:11.915Z,99.99
2023-03-12T01:36:12.242Z,99.99
2023-03-12T01:37:12.633Z,99.99
2023-03-12T01:38:12.919Z,99.99
2023-03-12T01:39:13.280Z,99.99
2023-03-12T01:40:13.651Z,99.99
2023-03-12T01:41:14.003Z,99.99
2023-03-12T01:42:14.476Z,99.99
2023-03-12T01:43:14.719Z,99.99
2023-03-12T01:44:15.090Z,99.99
2023-03-12T01:45:15.445Z,99.99
2023-03-12T01:46:15.999Z,99.99
2023-03-12T01:47:16.173Z,99.99
2023-03-12T01:48:16.541Z,99.99
2023-03-12T01:49:16.871Z,99.99
2023-03-12T01:50:17.247Z,99.99
2023-03-12T01:51:17.661Z,99.99
2023-03-12T01:52:17.997Z,99.99
2023-03-12T01:53:18.325Z,99.99
2023-03-12T01:54:18.678Z,99.99
2023-03-12T01:55:19.042Z,99.99
2023-03-12T01:56:19.413Z,99.99
2023-03-12T01:57:19.763Z,99.99
2023-03-12T01:58:20.119Z,99.99
2023-03-12T01:59:20.501Z,99.99
2023-03-12T02:00:20.832Z,99.99
2023-03-12T02:01:21.312Z,99.99
2023-03-12T02:02:21.566Z,99.99
2023-03-12T02:03:21.919Z,99.99
2023-03-12T02:04:22.358Z,99.99
2023-03-12T02:05:22.644Z,99.99
2023-03-12T02:06:23.027Z,99.99
2023-03-12T02:07:23.340Z,99.99
2023-03-12T02:08:23.718Z,99.99
2023-03-12T02:09:24.048Z,99.99
2023-03-12T02:10:24.425Z,99.99
2023-03-12T02:11:24.776Z,99.99
2023-03-12T02:12:25.130Z,99.99
2023-03-12T02:13:25.497Z,99.99
2023-03-12T02:14:25.851Z,99.99
2023-03-12T02:15:26.225Z,99.99
2023-03-12T02:16:26.640Z,99.99
2023-03-12T02:17:26.913Z,99.99
2023-03-12T02:18:27.288Z,99.99
2023-03-12T02:19:27.654Z,99.99
2023-03-12T02:20:28.007Z,99.99
2023-03-12T02:21:28.394Z,99.99
2023-03-12T02:22:28.702Z,99.99
2023-03-12T02:23:29.062Z,99.99
2023-03-12T02:24:29.449Z,99.99
2023-03-12T02:25:29.776Z,99.99
2023-03-12T02:26:30.151Z,99.99
2023-03-12T02:27:30.512Z,99.99
2023-03-12T02:28:30.882Z,99.99
2023-03-12T02:29:31.238Z,99.99
2023-03-12T02:30:31.590Z,99.99
2023-03-12T02:31:32.047Z,99.99
2023-03-12T02:32:32.375Z,99.99
2023-03-12T02:33:32.699Z,99.99
2023-03-12T02:34:33.020Z,99.99
2023-03-12T02:35:33.458Z,99.99
2023-03-12T02:36:33.742Z,99.99
2023-03-12T02:37:34.094Z,99.99
2023-03-12T02:38:34.399Z,99.99
2023-03-12T02:39:34.757Z,99.99
2023-03-12T02:40:35.129Z,99.99
2023-03-12T02:41:35.490Z,99.99
2023-03-12T02:42:35.855Z,99.99
2023-03-12T02:43:36.203Z,99.99
2023-03-12T02:44:36.583Z,99.99
2023-03-12T02:45:37.048Z,99.99
2023-03-12T02:46:37.324Z,99.99
2023-03-12T02:47:37.659Z,99.99
2023-03-12T02:48:38.026Z,99.99
2023-03-12T02:49:38.374Z,99.99
2023-03-12T02:50:38.799Z,99.99
2023-03-12T02:51:39.169Z,99.99
2023-03-12T02:52:39.455Z,99.99
2023-03-12T02:53:39.815Z,99.99
2023-03-12T02:54:40.154Z,99.99
2023-03-12T02:55:40.502Z,99.99
2023-03-12T02:56:40.905Z,99.99
2023-03-12T02:57:41.198Z,99.99
2023-03-12T02:58:41.584Z,99.99
2023-03-12T02:59:41.905Z,99.99
2023-03-12T03:00:42.266Z,99.99
2023-03-12T03:01:42.689Z,99.99
2023-03-12T03:02:42.988Z,99.99
2023-03-12T03:03:43.360Z,99.99
2023-03-12T03:04:43.706Z,99.99
2023-03-12T03:05:44.058Z,99.99
2023-03-12T03:06:44.450Z,99.99
2023-03-12T03:07:44.750Z,99.99
2023-03-12T03:08:45.124Z,99.99
2023-03-12T03:09:45.492Z,99.99
2023-03-12T03:10:45.832Z,99.99
2023-03-12T03:11:46.208Z,99.99
2023-03-12T03:12:46.630Z,99.99
2023-03-12T03:13:46.913Z,99.99
2023-03-12T03:14:47.305Z,99.99
2023-03-12T03:15:47.681Z,99.99
2023-03-12T03:16:48.052Z,99.99
2023-03-12T03:17:48.340Z,99.99
2023-03-12T03:18:48.685Z,99.99
2023-03-12T03:19:49.036Z,99.99
2023-03-12T03:20:49.404Z,99.99
2023-03-12T03:21:49.785Z,99.99
2023-03-12T03:22:50.144Z,99.99
2023-03-12T03:23:50.457Z,99.99
2023-03-12T03:24:50.819Z,99.99
2023-03-12T03:25:51.183Z,99.99
2023-03-12T03:26:51.559Z,99.99
2023-03-12T03:27:51.904Z,99.99
2023-03-12T03:28:52.279Z,99.99
2023-03-12T03:29:53.672Z,99.99
2023-03-12T03:30:52.990Z,99.99
2023-03-12T03:31:53.379Z,99.99
2023-03-12T03:32:53.755Z,99.99
2023-03-12T03:33:54.054Z,99.99
2023-03-12T03:34:54.409Z,99.99
2023-03-12T03:35:54.808Z,99.99
2023-03-12T03:36:55.121Z,99.99
2023-03-12T03:37:55.446Z,99.99
2023-03-12T03:38:55.802Z,99.99
2023-03-12T03:39:56.162Z,99.99
2023-03-12T03:40:56.517Z,99.99
2023-03-12T03:41:56.896Z,99.99
2023-03-12T03:42:57.231Z,99.99
2023-03-12T03:43:57.582Z,99.99
2023-03-12T03:44:57.973Z,99.99
2023-03-12T03:45:58.323Z,99.99
2023-03-12T03:46:58.692Z,99.99
2023-03-12T03:47:59.024Z,99.99
2023-03-12T03:48:59.368Z,99.99
2023-03-12T03:49:59.741Z,99.99
2023-03-12T03:51:00.123Z,99.99
2023-03-12T03:52:00.499Z,99.99
2023-03-12T03:53:00.834Z,99.99
2023-03-12T03:54:01.209Z,99.99
2023-03-12T03:55:01.550Z,99.99
2023-03-12T03:56:01.878Z,99.99
2023-03-12T03:57:02.272Z,99.99
2023-03-12T03:58:02.648Z,99.99
2023-03-12T03:59:02.972Z,99.99
2023-03-12T04:00:03.974Z,99.99
2023-03-12T04:01:03.711Z,99.99
2023-03-12T04:02:04.059Z,99.99
2023-03-12T04:03:04.451Z,99.99
2023-03-12T04:04:04.773Z,99.99
2023-03-12T04:05:05.179Z,99.99
2023-03-12T04:06:05.529Z,99.99
2023-03-12T04:07:05.897Z,99.99
2023-03-12T04:08:06.247Z,99.99
2023-03-12T04:09:06.577Z,99.99
2023-03-12T04:10:07.009Z,99.99
2023-03-12T04:11:07.288Z,99.99
2023-03-12T04:12:07.664Z,99.99
2023-03-12T04:13:08.041Z,99.99
2023-03-12T04:14:08.404Z,99.99
2023-03-12T04:15:08.711Z,99.99
2023-03-12T04:16:09.096Z,99.99
2023-03-12T04:17:09.472Z,99.99
2023-03-12T04:18:09.862Z,99.99
2023-03-12T04:19:10.195Z,99.99
2023-03-12T04:20:10.527Z,99.99
2023-03-12T04:21:10.876Z,99.99
2023-03-12T04:22:11.235Z,99.99
2023-03-12T04:23:11.592Z,99.99
2023-03-12T04:24:11.960Z,99.99
2023-03-12T04:25:12.276Z,99.99
2023-03-12T04:26:12.682Z,99.99
2023-03-12T04:27:13.058Z,99.99
2023-03-12T04:28:13.429Z,99.99
2023-03-12T04:29:13.769Z,99.99
2023-03-12T04:30:14.104Z,99.99
2023-03-12T04:31:14.479Z,99.99
2023-03-12T04:32:14.908Z,99.99
2023-03-12T04:33:15.164Z,99.99
2023-03-12T04:34:15.539Z,99.99
2023-03-12T04:35:15.887Z,99.99
2023-03-12T04:36:16.242Z,99.99
2023-03-12T04:37:16.612Z,99.99
2023-03-12T04:38:16.974Z,99.99
2023-03-12T04:39:17.318Z,99.99
2023-03-12T04:40:17.677Z,99.99
2023-03-12T04:41:18.014Z,99.99
2023-03-12T04:42:18.384Z,99.99
2023-03-12T04:43:18.735Z,99.99
2023-03-12T04:44:19.067Z,99.99
2023-03-12T04:45:19.436Z,99.99
2023-03-12T04:46:19.840Z,99.99
2023-03-12T04:47:20.210Z,99.99
2023-03-12T04:48:20.531Z,99.99
2023-03-12T04:49:20.877Z,99.99
2023-03-12T04:50:21.237Z,99.99
2023-03-12T04:51:21.598Z,99.99
2023-03-12T04:52:21.952Z,99.99
2023-03-12T04:53:22.333Z,99.99
2023-03-12T04:54:22.654Z,99.99
2023-03-12T04:55:23.010Z,99.99
2023-03-12T04:56:23.363Z,99.99
2023-03-12T04:57:23.765Z,99.99
2023-03-12T04:58:24.084Z,99.99
2023-03-12T04:59:24.456Z,99.99
2023-03-12T05:00:24.814Z,99.99
2023-03-12T05:01:25.162Z,99.99
2023-03-12T05:02:25.562Z,99.99
2023-03-12T05:03:25.943Z,99.99
2023-03-12T05:04:26.264Z,99.99
2023-03-12T05:05:26.614Z,99.99
2023-03-12T05:06:27.001Z,99.99
2023-03-12T05:07:27.307Z,99.99
2023-03-12T05:08:27.536Z,99.99
2023-03-12T05:09:27.804Z,99.99
2023-03-12T05:10:28.082Z,99.99
2023-03-12T05:11:28.279Z,99.99
2023-03-12T05:12:28.734Z,99.99
2023-03-12T05:13:29.101Z,99.99
2023-03-12T05:14:29.321Z,99.99
2023-03-12T05:15:29.588Z,99.99
2023-03-12T05:16:29.852Z,99.99
2023-03-12T05:17:30.084Z,99.99
2023-03-12T05:18:30.355Z,99.99
2023-03-12T05:19:30.527Z,99.99
2023-03-12T05:20:30.814Z,99.99
2023-03-12T05:21:30.978Z,99.99
2023-03-12T05:22:31.300Z,99.99
2023-03-12T05:23:31.450Z,99.99
2023-03-12T05:24:31.614Z,99.99
2023-03-12T05:25:31.794Z,99.99
2023-03-12T05:26:32.009Z,99.99
2023-03-12T05:27:32.374Z,99.99
2023-03-12T05:28:32.319Z,99.99
2023-03-12T05:29:32.462Z,99.99
2023-03-12T05:30:32.629Z,99.99
2023-03-12T05:31:32.847Z,99.99
2023-03-12T05:32:33.063Z,99.99
2023-03-12T05:33:33.178Z,99.99
2023-03-12T05:34:33.325Z,99.99
2023-03-12T05:35:33.555Z,99.99
2023-03-12T05:36:33.802Z,99.99
2023-03-12T05:37:33.991Z,99.99
2023-03-12T05:38:34.149Z,99.99
2023-03-12T05:39:34.339Z,99.99
2023-03-12T05:40:34.511Z,99.99
2023-03-12T05:41:34.703Z,99.99
2023-03-12T05:42:34.884Z,99.99
2023-03-12T05:43:35.176Z,99.99
2023-03-12T05:44:35.385Z,99.99
2023-03-12T05:45:35.759Z,99.99
2023-03-12T05:46:35.989Z,99.99
2023-03-12T05:47:36.191Z,99.99
2023-03-12T05:48:36.439Z,99.99
2023-03-12T05:49:36.610Z,99.99
2023-03-12T05:50:36.909Z,99.99
2023-03-12T05:51:37.106Z,99.99
2023-03-12T05:52:37.310Z,99.99
2023-03-12T05:53:37.616Z,99.99
2023-03-12T05:54:37.882Z,99.99
2023-03-12T05:55:38.047Z,99.99
2023-03-12T05:56:44.354Z,99.99
2023-03-12T05:57:38.595Z,99.99
2023-03-12T05:58:38.708Z,99.99
2023-03-12T05:59:38.986Z,99.99
2023-03-12T06:00:39.333Z,99.99
2023-03-12T06:01:45.880Z,99.99
2023-03-12T06:02:39.717Z,99.99
2023-03-12T06:03:39.783Z,99.99
2023-03-12T06:04:39.882Z,99.99
2023-03-12T06:05:40.224Z,99.99
2023-03-12T06:06:40.509Z,99.99
2023-03-12T06:07:40.700Z,99.99
2023-03-12T06:08:40.979Z,99.99
2023-03-12T06:09:41.155Z,99.99
2023-03-12T06:10:41.335Z,99.99
2023-03-12T06:11:41.522Z,99.99
2023-03-12T06:12:41.853Z,99.99
2023-03-12T06:13:42.003Z,99.99
2023-03-12T06:14:42.193Z,99.99
2023-03-12T06:15:42.387Z,99.99
2023-03-12T06:16:42.737Z,99.99
2023-03-12T06:17:42.880Z,99.99
2023-03-12T06:18:43.030Z,99.99
2023-03-12T06:19:43.345Z,99.99
2023-03-12T06:20:43.527Z,99.99
2023-03-12T06:21:43.739Z,99.99
2023-03-12T06:22:43.936Z,99.99
2023-03-12T06:23:44.085Z,99.99
2023-03-12T06:24:44.311Z,99.99
2023-03-12T06:25:44.461Z,99.99
2023-03-12T06:26:44.620Z,99.99
2023-03-12T06:27:44.845Z,99.99
2023-03-12T06:28:44.999Z,99.99
2023-03-12T06:29:45.204Z,99.99
2023-03-12T06:30:45.390Z,99.99
2023-03-12T06:31:45.650Z,99.99
2023-03-12T06:32:45.846Z,99.99
2023-03-12T06:33:46.006Z,99.99
2023-03-12T06:34:46.108Z,99.99
2023-03-12T06:35:46.341Z,99.99
2023-03-12T06:36:46.453Z,99.99
2023-03-12T06:37:46.661Z,99.99
2023-03-12T06:38:46.815Z,99.99
2023-03-12T06:39:47.026Z,99.99
2023-03-12T06:40:47.198Z,99.99
2023-03-12T06:41:47.420Z,99.99
2023-03-12T06:42:47.655Z,99.99
2023-03-12T06:43:47.856Z,99.99
2023-03-12T06:44:47.989Z,99.99
2023-03-12T06:45:48.167Z,99.99
2023-03-12T06:46:48.390Z,99.99
2023-03-12T06:47:48.564Z,99.99
2023-03-12T06:48:48.855Z,99.99
2023-03-12T06:49:48.934Z,99.99
2023-03-12T06:50:49.172Z,99.99
2023-03-12T06:51:49.303Z,99.99
2023-03-12T06:52:49.478Z,99.99
2023-03-12T06:53:49.680Z,99.99
2023-03-12T06:54:49.822Z,99.99
2023-03-12T06:55:50.025Z,99.99
2023-03-12T06:56:50.244Z,99.99
2023-03-12T06:57:50.395Z,99.99
2023-03-12T06:58:50.592Z,99.99
2023-03-12T06:59:50.850Z,99.99
2023-03-12T07:00:51.032Z,99.99
2023-03-12T07:01:51.203Z,99.99
2023-03-12T07:02:51.390Z,99.99
2023-03-12T07:03:57.493Z,99.99
2023-03-12T07:04:51.722Z,99.99
2023-03-12T07:05:51.964Z,99.99
2023-03-12T07:06:52.266Z,99.99
2023-03-12T07:07:52.631Z,99.99
2023-03-12T07:08:52.737Z,99.99
2023-03-12T07:09:52.917Z,99.99
2023-03-12T07:10:53.210Z,99.99
2023-03-12T07:11:53.619Z,99.99
2023-03-12T07:12:53.837Z,99.99
2023-03-12T07:13:53.993Z,99.99
2023-03-12T07:14:54.219Z,99.99
2023-03-12T07:15:54.417Z,99.99
2023-03-12T07:16:54.660Z,99.99
2023-03-12T07:17:54.907Z,99.99
2023-03-12T07:18:55.134Z,99.99
2023-03-12T07:19:55.206Z,99.99
2023-03-12T07:20:55.541Z,99.99
2023-03-12T07:21:55.946Z,99.99
2023-03-12T07:22:56.117Z,99.99
2023-03-12T07:23:56.281Z,99.99
2023-03-12T07:24:56.464Z,99.99
2023-03-12T07:25:56.768Z,99.99
2023-03-12T07:26:56.938Z,99.99
2023-03-12T07:27:57.256Z,99.99
2023-03-12T07:28:57.419Z,99.99
2023-03-12T07:29:57.644Z,99.99
2023-03-12T07:30:57.823Z,99.99
2023-03-12T07:31:57.976Z,99.99
2023-03-12T07:32:58.251Z,99.99
2023-03-12T07:33:58.533Z,99.99
2023-03-12T07:34:58.634Z,99.99
2023-03-12T07:35:58.993Z,99.99
2023-03-12T07:36:58.998Z,99.99
2023-03-12T07:37:59.265Z,99.99
2023-03-12T07:38:59.499Z,99.99
2023-03-12T07:39:59.767Z,99.99
2023-03-12T07:40:59.909Z,99.99
2023-03-12T07:42:00.209Z,99.99
2023-03-12T07:43:00.379Z,99.99
2023-03-12T07:44:00.775Z,99.99
2023-03-12T07:45:01.029Z,99.99
2023-03-12T07:46:01.122Z,99.92
2023-03-12T07:47:16.587Z,99.61
2023-03-12T07:48:01.716Z,99.56
2023-03-12T07:49:01.903Z,99.35
2023-03-12T07:50:02.163Z,99.04
2023-03-12T07:51:02.276Z,98.83
2023-03-12T07:52:02.681Z,98.58
2023-03-12T07:53:02.741Z,98.47
2023-03-12T07:54:02.996Z,98.05
2023-03-12T07:55:03.392Z,97.85
2023-03-12T07:56:03.593Z,97.85
2023-03-12T07:57:03.724Z,97.85
2023-03-12T07:58:04.101Z,97.64
2023-03-12T07:59:04.270Z,97.38
2023-03-12T08:00:04.345Z,96.97
2023-03-12T08:01:04.499Z,96.97
2023-03-12T08:02:04.899Z,97.07
2023-03-12T08:03:05.257Z,96.55
2023-03-12T08:04:05.369Z,96.34
2023-03-12T08:05:05.628Z,96.23
2023-03-12T08:06:05.930Z,96.09
2023-03-12T08:07:08.785Z,96.09
2023-03-12T08:08:06.177Z,95.67
2023-03-12T08:09:06.290Z,95.15
2023-03-12T08:10:06.513Z,95.42
2023-03-12T08:11:06.788Z,94.90
2023-03-12T08:12:07.078Z,94.69
2023-03-12T08:13:07.241Z,94.17
2023-03-12T08:14:07.545Z,94.17
2023-03-12T08:15:07.761Z,93.85
2023-03-12T08:16:09.546Z,93.75
2023-03-12T08:17:08.231Z,93.96
2023-03-12T08:18:08.416Z,94.06
2023-03-12T08:19:08.765Z,94.06
2023-03-12T08:20:08.995Z,93.90
2023-03-12T08:21:09.196Z,93.69
2023-03-12T08:22:09.430Z,93.85
2023-03-12T08:23:09.685Z,93.85
2023-03-12T08:24:09.853Z,93.96
2023-03-12T08:25:10.029Z,93.96
2023-03-12T08:26:10.338Z,94.06
2023-03-12T08:27:10.692Z,94.06
2023-03-12T08:28:10.959Z,93.75
2023-03-12T08:29:11.114Z,93.33
2023-03-12T08:30:11.311Z,92.87
2023-03-12T08:31:11.647Z,92.97
2023-03-12T08:32:11.868Z,93.08
2023-03-12T08:33:12.121Z,92.77
2023-03-12T08:34:12.395Z,92.97
2023-03-12T08:35:12.686Z,92.97
2023-03-12T08:36:12.930Z,92.97
2023-03-12T08:37:13.153Z,93.14
2023-03-12T08:38:13.381Z,92.52
2023-03-12T08:39:13.542Z,92.41
2023-03-12T08:40:13.840Z,92.72
2023-03-12T08:41:14.132Z,91.78
2023-03-12T08:42:14.346Z,91.47
2023-03-12T08:43:14.497Z,91.68
2023-03-12T08:44:14.663Z,91.33
2023-03-12T08:45:14.966Z,91.33
2023-03-12T08:46:15.330Z,90.91
2023-03-12T08:47:15.443Z,90.91
2023-03-12T08:48:15.721Z,90.91
2023-03-12T08:49:15.928Z,90.39
2023-03-12T08:50:16.144Z,90.29
2023-03-12T08:51:16.932Z,89.98
2023-03-12T08:52:16.607Z,89.56
2023-03-12T08:53:16.950Z,89.41
2023-03-12T08:54:17.075Z,89.31
2023-03-12T08:55:17.290Z,89.00
2023-03-12T08:56:17.576Z,89.10
2023-03-12T08:57:17.729Z,88.58
2023-03-12T08:58:18.145Z,88.79
2023-03-12T08:59:18.188Z,88.48
2023-03-12T09:00:18.376Z,88.58
2023-03-12T09:01:18.596Z,88.68
2023-03-12T09:02:18.757Z,88.68
2023-03-12T09:03:19.154Z,88.48
2023-03-12T09:04:19.499Z,88.17
2023-03-12T09:05:19.539Z,88.06
2023-03-12T09:06:19.834Z,88.27
2023-03-12T09:07:20.144Z,88.43
2023-03-12T09:08:20.449Z,88.23
2023-03-12T09:09:20.645Z,88.43
2023-03-12T09:10:20.791Z,87.81
2023-03-12T09:11:20.992Z,87.50
2023-03-12T09:12:21.319Z,87.19
2023-03-12T09:13:21.622Z,87.60
2023-03-12T09:15:01.088Z,87.50
2023-03-12T09:15:21.966Z,87.08
2023-03-12T09:16:22.298Z,86.67
2023-03-12T09:17:22.423Z,86.25
2023-03-12T09:18:22.610Z,85.94
2023-03-12T09:19:22.799Z,85.80
2023-03-12T09:20:22.954Z,85.06
2023-03-12T09:21:23.294Z,84.96
2023-03-12T09:22:23.465Z,85.03
2023-03-12T09:23:23.637Z,84.82
2023-03-12T09:24:23.837Z,84.51
2023-03-12T09:25:24.005Z,84.58
2023-03-12T09:26:24.177Z,84.47
2023-03-12T09:27:24.483Z,83.64
2023-03-12T09:28:24.694Z,83.12
2023-03-12T09:29:24.877Z,83.01
2023-03-12T09:30:25.245Z,83.43
2023-03-12T09:31:25.445Z,82.81
2023-03-12T09:32:25.659Z,82.39
2023-03-12T09:33:25.950Z,82.81
2023-03-12T09:34:26.286Z,82.08
2023-03-12T09:35:26.541Z,82.39
2023-03-12T09:36:26.831Z,82.18
2023-03-12T09:37:27.036Z,82.29
2023-03-12T09:38:27.202Z,82.60
2023-03-12T09:39:27.529Z,82.29
2023-03-12T09:40:27.681Z,82.08
2023-03-12T09:41:27.889Z,81.49
2023-03-12T09:42:28.265Z,81.29
2023-03-12T09:43:28.553Z,81.60
2023-03-12T09:44:28.655Z,81.56
2023-03-12T09:45:28.806Z,81.67
2023-03-12T09:46:29.064Z,80.69
2023-03-12T09:47:29.295Z,80.76
2023-03-12T09:48:29.559Z,80.14
2023-03-12T09:49:29.692Z,79.72
2023-03-12T09:50:29.885Z,78.58
2023-03-12T09:51:30.104Z,78.89
2023-03-12T09:52:30.207Z,78.37
2023-03-12T09:53:30.438Z,78.47
2023-03-12T09:54:30.689Z,77.72
2023-03-12T09:55:31.003Z,77.92
2023-03-12T09:56:31.160Z,78.20
2023-03-12T09:57:31.350Z,77.89
2023-03-12T09:58:31.564Z,77.16
2023-03-12T09:59:31.742Z,76.33
2023-03-12T10:00:31.928Z,76.37
2023-03-12T10:01:32.083Z,76.37
2023-03-12T10:02:32.431Z,75.85
2023-03-12T10:03:32.674Z,75.85
2023-03-12T10:04:34.638Z,76.43
2023-03-12T10:05:33.107Z,76.23
2023-03-12T10:06:33.255Z,75.40
2023-03-12T10:07:33.431Z,75.50
2023-03-12T10:08:33.623Z,75.19
2023-03-12T10:09:33.836Z,74.84
2023-03-12T10:10:33.985Z,74.53
2023-03-12T10:11:34.146Z,74.01
2023-03-12T10:12:34.361Z,74.01
2023-03-12T10:13:34.532Z,74.11
2023-03-12T10:14:34.709Z,73.91
2023-03-12T10:15:34.897Z,73.80
2023-03-12T10:16:35.069Z,74.32
2023-03-12T10:17:35.295Z,73.77
2023-03-12T10:18:35.627Z,74.60
2023-03-12T10:19:35.601Z,74.15
2023-03-12T10:20:35.788Z,73.22
2023-03-12T10:21:36.090Z,73.43
2023-03-12T10:22:36.256Z,72.91
2023-03-12T10:23:36.443Z,73.01
2023-03-12T10:24:36.612Z,73.11
2023-03-12T10:25:36.803Z,73.22
2023-03-12T10:26:37.098Z,73.71
2023-03-12T10:27:37.394Z,73.84
2023-03-12T10:28:37.621Z,72.98
2023-03-12T10:29:37.746Z,72.77
2023-03-12T10:30:37.976Z,72.08
2023-03-12T10:31:38.249Z,71.88
2023-03-12T10:32:38.433Z,71.36
2023-03-12T10:33:38.710Z,71.28
2023-03-12T10:34:38.871Z,71.49
2023-03-12T10:35:39.083Z,70.94
2023-03-12T10:36:39.306Z,71.25
2023-03-12T10:37:39.403Z,71.25
2023-03-12T10:38:39.585Z,71.73
2023-03-12T10:39:39.769Z,71.29
2023-03-12T10:40:39.940Z,70.36
2023-03-12T10:41:40.224Z,70.15
2023-03-12T10:42:40.403Z,70.32
2023-03-12T10:43:40.588Z,70.61
2023-03-12T10:44:40.778Z,70.61
2023-03-12T10:45:40.930Z,69.67
2023-03-12T10:46:41.112Z,69.06
2023-03-12T10:47:41.285Z,68.43
2023-03-12T10:48:41.496Z,68.54
2023-03-12T10:49:41.629Z,68.64
2023-03-12T10:50:41.790Z,68.23
2023-03-12T10:51:42.095Z,69.12
2023-03-12T10:52:42.257Z,68.64
2023-03-12T10:53:42.491Z,67.61
2023-03-12T10:54:42.765Z,67.82
2023-03-12T10:55:42.945Z,67.09
2023-03-12T10:56:43.127Z,67.43
2023-03-12T10:57:43.304Z,68.05
2023-03-12T10:58:43.537Z,68.08
2023-03-12T10:59:43.772Z,68.40
2023-03-12T11:00:44.065Z,68.88
2023-03-12T11:01:44.497Z,68.77
2023-03-12T11:02:44.650Z,67.64
2023-03-12T11:03:44.860Z,68.26
2023-03-12T11:04:45.136Z,67.95
2023-03-12T11:05:45.363Z,67.82
2023-03-12T11:06:45.507Z,68.02
2023-03-12T11:07:45.804Z,67.09
2023-03-12T11:08:46.113Z,67.30
2023-03-12T11:09:46.396Z,67.71
2023-03-12T11:10:46.579Z,66.26
2023-03-12T11:11:46.770Z,66.36
2023-03-12T11:12:47.072Z,65.57
2023-03-12T11:13:47.388Z,65.78
2023-03-12T11:14:47.549Z,65.99
2023-03-12T11:15:47.779Z,65.78
2023-03-12T11:16:48.055Z,65.78
2023-03-12T11:17:48.233Z,66.09
2023-03-12T11:18:48.422Z,64.67
2023-03-12T11:19:48.751Z,63.97
2023-03-12T11:20:49.017Z,65.11
2023-03-12T11:21:49.214Z,65.11
2023-03-12T11:22:51.496Z,65.11
2023-03-12T11:23:49.730Z,65.63
2023-03-12T11:24:49.979Z,65.73
2023-03-12T11:25:50.162Z,65.66
2023-03-12T11:26:50.397Z,66.28
2023-03-12T11:27:50.541Z,66.66
2023-03-12T11:28:50.738Z,66.18
2023-03-12T11:29:51.087Z,66.80
2023-03-12T11:30:51.492Z,66.80
2023-03-12T11:31:51.605Z,66.90
2023-03-12T11:32:51.842Z,67.03
2023-03-12T11:33:52.107Z,67.42
2023-03-12T11:34:52.397Z,67.45
2023-03-12T11:35:52.696Z,67.97
2023-03-12T11:36:52.884Z,67.76
2023-03-12T11:37:53.173Z,67.97
2023-03-12T11:38:53.490Z,68.38
2023-03-12T11:39:53.648Z,68.90
2023-03-12T11:40:53.945Z,68.70
2023-03-12T11:41:54.143Z,69.21
2023-03-12T11:42:54.432Z,69.32
2023-03-12T11:43:54.752Z,69.32
2023-03-12T11:44:55.044Z,69.21
2023-03-12T11:45:55.401Z,69.32
2023-03-12T11:46:55.716Z,69.94
2023-03-12T11:47:55.945Z,70.25
2023-03-12T11:48:56.042Z,70.25
2023-03-12T11:49:56.301Z,70.25
2023-03-12T11:50:56.618Z,70.04
2023-03-12T11:51:56.791Z,70.76
2023-03-12T11:52:56.980Z,70.67
2023-03-12T11:53:57.187Z,70.46
2023-03-12T11:54:57.337Z,70.18
2023-03-12T11:55:57.532Z,70.80
2023-03-12T11:57:03.792Z,71.01
2023-03-12T11:57:57.947Z,71.18
2023-03-12T11:58:58.217Z,71.28
2023-03-12T11:59:58.510Z,71.28
2023-03-12T12:00:58.685Z,71.08
2023-03-12T12:01:58.936Z,71.49
2023-03-12T12:02:59.220Z,71.49
2023-03-12T12:03:59.283Z,71.18
2023-03-12T12:04:59.548Z,71.28
2023-03-12T12:05:59.881Z,71.80
2023-03-12T12:06:59.998Z,72.32
2023-03-12T12:08:00.298Z,72.53
2023-03-12T12:09:00.511Z,72.15
2023-03-12T12:10:00.693Z,73.08
2023-03-12T12:11:00.906Z,72.84
2023-03-12T12:12:03.503Z,72.84
2023-03-12T12:13:01.349Z,72.74
2023-03-12T12:14:01.657Z,72.84
2023-03-12T12:15:01.971Z,72.74
2023-03-12T12:16:02.221Z,72.67
2023-03-12T12:17:02.306Z,72.98
2023-03-12T12:18:02.517Z,73.36
2023-03-12T12:19:04.523Z,73.36
2023-03-12T12:20:03.096Z,73.46
2023-03-12T12:21:03.317Z,74.40
2023-03-12T12:22:03.480Z,74.63
2023-03-12T12:23:03.767Z,74.22
2023-03-12T12:24:04.144Z,75.46
2023-03-12T12:25:04.270Z,75.46
2023-03-12T12:26:04.454Z,75.15
2023-03-12T12:27:04.637Z,74.95
2023-03-12T12:28:04.807Z,74.84
2023-03-12T12:29:05.113Z,75.26
2023-03-12T12:30:05.420Z,75.26
2023-03-12T12:31:05.570Z,76.05
2023-03-12T12:32:05.824Z,75.36
2023-03-12T12:33:06.094Z,75.74
2023-03-12T12:34:06.438Z,75.32
2023-03-12T12:35:06.664Z,75.43
2023-03-12T12:36:07.016Z,76.15
2023-03-12T12:37:07.222Z,75.95
2023-03-12T12:38:07.336Z,75.95
2023-03-12T12:39:07.539Z,76.36
2023-03-12T12:40:07.682Z,76.88
2023-03-12T12:41:07.869Z,76.78
2023-03-12T12:42:08.219Z,77.09
2023-03-12T12:43:08.356Z,77.75
2023-03-12T12:44:08.577Z,78.72
2023-03-12T12:45:08.730Z,80.41
2023-03-12T12:46:09.090Z,81.80
2023-03-12T12:47:09.221Z,84.01
2023-03-12T12:48:09.538Z,84.84
2023-03-12T12:49:09.828Z,85.43
2023-03-12T12:50:10.118Z,86.19
2023-03-12T12:51:10.716Z,86.41
2023-03-12T12:52:10.566Z,86.61
2023-03-12T12:53:10.790Z,87.13
2023-03-12T12:54:11.094Z,87.03
2023-03-12T12:55:11.347Z,87.96
2023-03-12T12:56:13.574Z,87.86